Santa Teresa, NM (88008)

5:24 PM MDT on July 24, 2016 (GMT -0600)
MesoWest | | Change Station

Elev 4115 ft 31.87 °N, 106.70 °W | Updated 36 minutes ago

Scattered Clouds
Scattered Clouds
103 °F
Feels Like 99 °F
N
8
Wind Variable Wind from SW
Gusts 12.0 mph

Today
High -- | Low -- °F
--% Chance of Precip.
Yesterday
High -- | Low -- °F
Precip. -- in
Pressure 29.65 in
Visibility 10.0 miles
Clouds Scattered Clouds 12000 ft
Heat Index 99 °F
Dew Point 42 °F
Humidity 13%
Rainfall in
Snow Depth Not available.
6:17 AM 8:08 PM
Waning Gibbous, 72% visible
METAR KBIF 242258Z AUTO VRB03KT 10SM SCT120 39/06 A2989 RMK AO2 SLP040 T03920055
Pressure 29.65 in
Visibility 10.0 miles
Clouds Scattered Clouds 12000 ft
Heat Index 99 °F
Dew Point 42 °F
Humidity 13%
Rainfall in
Snow Depth Not available.
6:17 AM 8:08 PM
Waning Gibbous, 72% visible
METAR KBIF 242258Z AUTO VRB03KT 10SM SCT120 39/06 A2989 RMK AO2 SLP040 T03920055

10-Day Weather Forecast

Almanac

Astronomy

Jul. 24, 2016 Rise Set
Actual Time
Civil Twilight
Nautical Twilight
Astronomical Twilight
Moon
Length of Visible Light
Length of Day
Tomorrow will be .
, % of the Moon is Illuminated

Today's Extremes

State Highs State Lows

Community

WunderPhotos

Upload Photos

1,927,205 photos uploaded!

WunderBlog® & News

Nearby

Air Quality

  Air Quality AQ Index Pollutant
Not available.

Snow Depth

Station Depth Elevation

Earthquake Activity

City Distance Mag. Time & Date
Minimum magnitude displayed is 2.5.

Coastal Water Temperatures

Place Temperature

Stations

Nearby Weather Stations

Station Location Temp. Windchill Dew Point Humidity Wind Precip. Elev Updated Type
                   

Watches & Warnings

There are currently no watches in effect.